Wake Forest, NC (27587)

5:50 PM EDT on July 31, 2015 (GMT -0400)
Flaherty Farms | | Change Station
CLOSE
Current Station
Personal Weather Station
Location: Wake Forest, NC
Elevation: 410 ft
Nearby Weather Stations

Elev 410 ft 35.99 °N, 78.49 °W | Updated 3 minutes ago

Mostly Cloudy
Mostly Cloudy
90.8 °F
Feels Like 92 °F
N
0.0
Wind Variable Wind from North
Gusts 2.0 mph

Today
High -- | Low -- °F
--% Chance of Precip.
Yesterday
High -- | Low -- °F
Precip. -- in
6:20 AM 8:19 PM
Full, 100% visible
Pressure 29.91 in
Visibility 10.0 miles
Clouds Scattered Clouds 6500 ft
Heat Index 92 °F
Dew Point 64 °F
Humidity 41%
Rainfall 0.00 in
Snow Depth Not available.
UV 3 out of 12
Pollen 4.20 out of 12
Air Quality Not available.
Flu Activity Not available.
METAR KLHZ 312135Z AUTO 32003KT 10SM SCT065 32/17 A2991 RMK AO2

More Conditions Fewer Conditions

Pressure 29.91 in
Visibility 10.0 miles
Clouds Scattered Clouds 6500 ft
Heat Index 92 °F
Dew Point 64 °F
Humidity 41%
Rainfall 0.00 in
Snow Depth Not available.
UV 3 out of 12
Pollen 4.20 out of 12
Air Quality Not available.
Flu Activity Not available.
METAR KLHZ 312135Z AUTO 32003KT 10SM SCT065 32/17 A2991 RMK AO2

More Conditions Fewer Conditions

10-Day Weather Forecast

×

Almanac

Astronomy

Jul. 31, 2015 Rise Set
Actual Time
Civil Twilight
Nautical Twilight
Astronomical Twilight
Moon
Length of Visible Light
Length of Day
Tomorrow will be .
, % of the Moon is Illuminated

Today's Extremes

State Highs State Lows

Community

WunderPhotos

Upload Photos

1,842,759 photos uploaded!

WunderBlogs® & News

Nearby

Air Quality

  Air Quality AQ Index Pollutant
Not available.

Snow Depth

Station Depth Elevation

Earthquake Activity

City Distance Mag. Time & Date
Minimum magnitude displayed is 2.5.

Coastal Water Temperatures

Place Temperature

Stations

Nearby Weather Stations

Station Location Temp. Windchill Dew Point Humidity Wind Precip. Elev Updated Type